sensor_id;sensor_type;location;lat;lon;timestamp;temperature;humidity
26254;DHT22;53339;51.378;0.094;2024-03-23T00:52:32;5.70;73.20
26254;DHT22;53339;51.378;0.094;2024-03-23T00:54:59;5.70;73.40
26254;DHT22;53339;51.378;0.094;2024-03-23T00:57:25;5.60;73.50
26254;DHT22;53339;51.378;0.094;2024-03-23T00:59:52;5.60;73.80
26254;DHT22;53339;51.378;0.094;2024-03-23T01:02:19;5.60;74.00
26254;DHT22;53339;51.378;0.094;2024-03-23T01:04:46;5.60;74.20
26254;DHT22;53339;51.378;0.094;2024-03-23T01:07:13;5.60;74.30
26254;DHT22;53339;51.378;0.094;2024-03-23T01:09:40;5.60;74.40
26254;DHT22;53339;51.378;0.094;2024-03-23T01:12:06;5.60;74.50
26254;DHT22;53339;51.378;0.094;2024-03-23T01:14:33;5.60;74.50
26254;DHT22;53339;51.378;0.094;2024-03-23T01:17:02;5.60;74.70
26254;DHT22;53339;51.378;0.094;2024-03-23T01:19:29;5.60;74.80
26254;DHT22;53339;51.378;0.094;2024-03-23T01:21:56;5.60;74.90
26254;DHT22;53339;51.378;0.094;2024-03-23T01:24:22;5.60;75.00
26254;DHT22;53339;51.378;0.094;2024-03-23T01:26:50;5.60;75.00
26254;DHT22;53339;51.378;0.094;2024-03-23T01:29:16;5.60;75.20
26254;DHT22;53339;51.378;0.094;2024-03-23T01:31:43;5.60;75.30
26254;DHT22;53339;51.378;0.094;2024-03-23T01:34:10;5.60;75.50
26254;DHT22;53339;51.378;0.094;2024-03-23T01:36:37;5.60;75.50
26254;DHT22;53339;51.378;0.094;2024-03-23T01:39:03;5.60;75.70
26254;DHT22;53339;51.378;0.094;2024-03-23T01:41:30;5.60;75.80
26254;DHT22;53339;51.378;0.094;2024-03-23T01:43:57;5.60;75.90
26254;DHT22;53339;51.378;0.094;2024-03-23T01:46:24;5.50;76.00
26254;DHT22;53339;51.378;0.094;2024-03-23T01:48:51;5.50;76.10
26254;DHT22;53339;51.378;0.094;2024-03-23T01:51:18;5.50;76.20
26254;DHT22;53339;51.378;0.094;2024-03-23T01:53:44;5.50;76.30
26254;DHT22;53339;51.378;0.094;2024-03-23T01:56:11;5.50;76.40
26254;DHT22;53339;51.378;0.094;2024-03-23T01:58:39;5.50;76.60
26254;DHT22;53339;51.378;0.094;2024-03-23T02:01:06;5.40;76.80
26254;DHT22;53339;51.378;0.094;2024-03-23T02:03:33;5.40;76.90
26254;DHT22;53339;51.378;0.094;2024-03-23T02:06:00;5.40;77.10
26254;DHT22;53339;51.378;0.094;2024-03-23T02:08:27;5.40;77.20
26254;DHT22;53339;51.378;0.094;2024-03-23T02:10:54;5.40;77.30
26254;DHT22;53339;51.378;0.094;2024-03-23T02:13:21;5.40;77.50
26254;DHT22;53339;51.378;0.094;2024-03-23T02:15:47;5.40;77.50
26254;DHT22;53339;51.378;0.094;2024-03-23T02:18:14;5.40;77.70
26254;DHT22;53339;51.378;0.094;2024-03-23T02:20:41;5.30;77.80
26254;DHT22;53339;51.378;0.094;2024-03-23T02:23:15;5.30;77.90
26254;DHT22;53339;51.378;0.094;2024-03-23T02:25:42;5.30;78.00
26254;DHT22;53339;51.378;0.094;2024-03-23T02:28:08;5.30;78.10
26254;DHT22;53339;51.378;0.094;2024-03-23T02:30:35;5.20;78.10
26254;DHT22;53339;51.378;0.094;2024-03-23T02:33:03;5.30;78.20
26254;DHT22;53339;51.378;0.094;2024-03-23T02:35:30;5.20;78.20
26254;DHT22;53339;51.378;0.094;2024-03-23T02:37:57;5.20;78.20
26254;DHT22;53339;51.378;0.094;2024-03-23T02:40:24;5.20;78.20
26254;DHT22;53339;51.378;0.094;2024-03-23T02:42:54;5.20;78.30
26254;DHT22;53339;51.378;0.094;2024-03-23T02:45:23;5.20;78.30
26254;DHT22;53339;51.378;0.094;2024-03-23T02:47:49;5.20;78.30
26254;DHT22;53339;51.378;0.094;2024-03-23T02:50:19;5.20;78.40
26254;DHT22;53339;51.378;0.094;2024-03-23T02:52:46;5.10;78.50
26254;DHT22;53339;51.378;0.094;2024-03-23T02:55:13;5.10;78.50
26254;DHT22;53339;51.378;0.094;2024-03-23T02:57:40;5.10;78.50
26254;DHT22;53339;51.378;0.094;2024-03-23T03:00:07;5.10;78.50
26254;DHT22;53339;51.378;0.094;2024-03-23T03:02:35;5.10;78.60
26254;DHT22;53339;51.378;0.094;2024-03-23T03:05:04;5.00;78.60
26254;DHT22;53339;51.378;0.094;2024-03-23T03:07:32;5.10;78.50
26254;DHT22;53339;51.378;0.094;2024-03-23T03:09:58;5.00;78.40
26254;DHT22;53339;51.378;0.094;2024-03-23T03:12:25;4.90;78.30
26254;DHT22;53339;51.378;0.094;2024-03-23T03:14:53;4.80;78.90
26254;DHT22;53339;51.378;0.094;2024-03-23T03:17:20;4.80;79.00
26254;DHT22;53339;51.378;0.094;2024-03-23T03:19:47;4.80;79.00
26254;DHT22;53339;51.378;0.094;2024-03-23T03:22:14;4.80;79.10
26254;DHT22;53339;51.378;0.094;2024-03-23T03:24:40;4.80;79.20
26254;DHT22;53339;51.378;0.094;2024-03-23T03:27:07;4.80;79.20
26254;DHT22;53339;51.378;0.094;2024-03-23T03:29:34;4.80;79.20
26254;DHT22;53339;51.378;0.094;2024-03-23T03:32:03;4.70;79.40
26254;DHT22;53339;51.378;0.094;2024-03-23T03:34:30;4.70;79.50
26254;DHT22;53339;51.378;0.094;2024-03-23T03:36:57;4.70;79.50
26254;DHT22;53339;51.378;0.094;2024-03-23T03:39:24;4.70;79.50
26254;DHT22;53339;51.378;0.094;2024-03-23T03:41:51;4.70;79.60
26254;DHT22;53339;51.378;0.094;2024-03-23T03:44:17;4.70;79.70
26254;DHT22;53339;51.378;0.094;2024-03-23T03:46:44;4.70;79.80
26254;DHT22;53339;51.378;0.094;2024-03-23T03:49:11;4.70;79.70
26254;DHT22;53339;51.378;0.094;2024-03-23T03:51:37;4.70;79.80
26254;DHT22;53339;51.378;0.094;2024-03-23T03:54:04;4.70;79.90
26254;DHT22;53339;51.378;0.094;2024-03-23T03:56:31;4.70;79.90
26254;DHT22;53339;51.378;0.094;2024-03-23T03:58:58;4.60;79.90
26254;DHT22;53339;51.378;0.094;2024-03-23T04:01:24;4.60;79.90
26254;DHT22;53339;51.378;0.094;2024-03-23T04:03:51;4.60;80.00
26254;DHT22;53339;51.378;0.094;2024-03-23T04:06:21;4.60;80.00
26254;DHT22;53339;51.378;0.094;2024-03-23T04:08:48;4.60;80.00
26254;DHT22;53339;51.378;0.094;2024-03-23T04:11:14;4.60;80.00
26254;DHT22;53339;51.378;0.094;2024-03-23T04:13:41;4.60;80.00
26254;DHT22;53339;51.378;0.094;2024-03-23T04:16:08;4.60;80.00
26254;DHT22;53339;51.378;0.094;2024-03-23T04:18:38;4.60;79.90
26254;DHT22;53339;51.378;0.094;2024-03-23T04:21:04;4.60;79.90
26254;DHT22;53339;51.378;0.094;2024-03-23T04:23:31;4.60;79.90
26254;DHT22;53339;51.378;0.094;2024-03-23T04:26:03;4.60;79.80
26254;DHT22;53339;51.378;0.094;2024-03-23T04:28:30;4.60;79.70
26254;DHT22;53339;51.378;0.094;2024-03-23T04:30:57;4.60;79.70
26254;DHT22;53339;51.378;0.094;2024-03-23T04:33:23;4.60;79.70
26254;DHT22;53339;51.378;0.094;2024-03-23T04:35:50;4.60;79.70
26254;DHT22;53339;51.378;0.094;2024-03-23T04:38:17;4.60;79.70
26254;DHT22;53339;51.378;0.094;2024-03-23T04:40:44;4.60;79.70
26254;DHT22;53339;51.378;0.094;2024-03-23T04:43:11;4.60;79.80
26254;DHT22;53339;51.378;0.094;2024-03-23T04:45:38;4.60;79.80
26254;DHT22;53339;51.378;0.094;2024-03-23T04:48:05;4.60;79.80
26254;DHT22;53339;51.378;0.094;2024-03-23T04:50:32;4.50;79.80
26254;DHT22;53339;51.378;0.094;2024-03-23T04:52:58;4.50;79.90
26254;DHT22;53339;51.378;0.094;2024-03-23T04:55:25;4.50;79.90
26254;DHT22;53339;51.378;0.094;2024-03-23T04:57:52;4.50;80.00
26254;DHT22;53339;51.378;0.094;2024-03-23T05:00:19;4.50;80.00
26254;DHT22;53339;51.378;0.094;2024-03-23T05:02:46;4.50;79.90
26254;DHT22;53339;51.378;0.094;2024-03-23T05:05:13;4.50;79.90
26254;DHT22;53339;51.378;0.094;2024-03-23T05:07:39;4.50;80.00
26254;DHT22;53339;51.378;0.094;2024-03-23T05:10:09;4.40;80.00
26254;DHT22;53339;51.378;0.094;2024-03-23T05:12:37;4.50;80.00
26254;DHT22;53339;51.378;0.094;2024-03-23T05:15:05;4.40;80.00
26254;DHT22;53339;51.378;0.094;2024-03-23T05:17:32;4.50;80.00
26254;DHT22;53339;51.378;0.094;2024-03-23T05:19:59;4.50;80.00
26254;DHT22;53339;51.378;0.094;2024-03-23T05:22:26;4.40;79.90
26254;DHT22;53339;51.378;0.094;2024-03-23T05:24:54;4.40;79.90
26254;DHT22;53339;51.378;0.094;2024-03-23T05:27:20;4.40;79.90
26254;DHT22;53339;51.378;0.094;2024-03-23T05:29:47;4.40;79.90
26254;DHT22;53339;51.378;0.094;2024-03-23T05:32:14;4.50;79.90
26254;DHT22;53339;51.378;0.094;2024-03-23T05:34:40;4.40;79.90
26254;DHT22;53339;51.378;0.094;2024-03-23T05:37:10;4.40;79.90
26254;DHT22;53339;51.378;0.094;2024-03-23T05:39:37;4.40;80.00
26254;DHT22;53339;51.378;0.094;2024-03-23T05:42:04;4.40;80.00
26254;DHT22;53339;51.378;0.094;2024-03-23T05:44:30;4.40;80.00
26254;DHT22;53339;51.378;0.094;2024-03-23T05:46:57;4.40;80.00
26254;DHT22;53339;51.378;0.094;2024-03-23T05:49:24;4.40;80.00
26254;DHT22;53339;51.378;0.094;2024-03-23T05:51:51;4.40;80.10
26254;DHT22;53339;51.378;0.094;2024-03-23T05:54:18;4.30;80.10
26254;DHT22;53339;51.378;0.094;2024-03-23T05:56:44;4.30;80.20
26254;DHT22;53339;51.378;0.094;2024-03-23T05:59:11;4.30;80.20
26254;DHT22;53339;51.378;0.094;2024-03-23T06:01:38;4.30;80.30
26254;DHT22;53339;51.378;0.094;2024-03-23T06:04:05;4.20;80.40
26254;DHT22;53339;51.378;0.094;2024-03-23T06:06:33;4.20;80.50
26254;DHT22;53339;51.378;0.094;2024-03-23T06:08:59;4.20;80.60
26254;DHT22;53339;51.378;0.094;2024-03-23T06:11:26;4.20;80.60
26254;DHT22;53339;51.378;0.094;2024-03-23T06:13:53;4.20;80.60
26254;DHT22;53339;51.378;0.094;2024-03-23T06:16:20;4.30;80.60
26254;DHT22;53339;51.378;0.094;2024-03-23T06:18:50;4.30;80.50
26254;DHT22;53339;51.378;0.094;2024-03-23T06:21:17;4.30;80.40
26254;DHT22;53339;51.378;0.094;2024-03-23T06:23:45;4.40;80.40
26254;DHT22;53339;51.378;0.094;2024-03-23T06:26:20;4.40;80.40
26254;DHT22;53339;51.378;0.094;2024-03-23T06:28:47;4.40;80.40
26254;DHT22;53339;51.378;0.094;2024-03-23T06:31:17;4.40;80.40
26254;DHT22;53339;51.378;0.094;2024-03-23T06:33:44;4.40;80.30
26254;DHT22;53339;51.378;0.094;2024-03-23T06:36:11;4.50;80.40
26254;DHT22;53339;51.378;0.094;2024-03-23T06:38:40;4.50;80.30
26254;DHT22;53339;51.378;0.094;2024-03-23T06:41:08;4.60;80.30
26254;DHT22;53339;51.378;0.094;2024-03-23T06:43:35;4.60;80.00
26254;DHT22;53339;51.378;0.094;2024-03-23T06:46:03;4.60;80.00
26254;DHT22;53339;51.378;0.094;2024-03-23T06:48:31;4.60;79.90
26254;DHT22;53339;51.378;0.094;2024-03-23T06:50:58;4.70;79.90
26254;DHT22;53339;51.378;0.094;2024-03-23T06:53:25;4.70;79.70
26254;DHT22;53339;51.378;0.094;2024-03-23T06:55:53;4.70;79.60
26254;DHT22;53339;51.378;0.094;2024-03-23T06:58:21;4.80;79.40
26254;DHT22;53339;51.378;0.094;2024-03-23T07:00:48;4.90;79.40
26254;DHT22;53339;51.378;0.094;2024-03-23T07:03:16;4.90;79.30
26254;DHT22;53339;51.378;0.094;2024-03-23T07:05:43;4.90;79.20
26254;DHT22;53339;51.378;0.094;2024-03-23T07:08:10;4.90;79.10
26254;DHT22;53339;51.378;0.094;2024-03-23T07:10:39;5.00;79.00
26254;DHT22;53339;51.378;0.094;2024-03-23T07:13:06;5.10;78.70
26254;DHT22;53339;51.378;0.094;2024-03-23T07:15:34;5.10;78.50
26254;DHT22;53339;51.378;0.094;2024-03-23T07:18:01;5.20;78.50
26254;DHT22;53339;51.378;0.094;2024-03-23T07:20:27;5.20;78.40
26254;DHT22;53339;51.378;0.094;2024-03-23T07:22:57;5.30;78.00
26254;DHT22;53339;51.378;0.094;2024-03-23T07:25:24;5.40;77.70
26254;DHT22;53339;51.378;0.094;2024-03-23T07:27:53;5.40;77.10
26254;DHT22;53339;51.378;0.094;2024-03-23T07:30:20;5.50;77.30
26254;DHT22;53339;51.378;0.094;2024-03-23T07:32:47;5.50;77.10
26254;DHT22;53339;51.378;0.094;2024-03-23T07:35:14;5.60;76.80
26254;DHT22;53339;51.378;0.094;2024-03-23T07:37:41;5.60;76.60
26254;DHT22;53339;51.378;0.094;2024-03-23T07:40:08;5.70;76.30
26254;DHT22;53339;51.378;0.094;2024-03-23T07:42:36;5.70;76.10
26254;DHT22;53339;51.378;0.094;2024-03-23T07:45:03;5.80;75.80
26254;DHT22;53339;51.378;0.094;2024-03-23T07:47:33;5.80;75.70
26254;DHT22;53339;51.378;0.094;2024-03-23T07:50:02;5.90;75.30
26254;DHT22;53339;51.378;0.094;2024-03-23T07:52:29;5.90;75.30
26254;DHT22;53339;51.378;0.094;2024-03-23T07:54:56;5.90;75.00
26254;DHT22;53339;51.378;0.094;2024-03-23T07:57:23;6.00;75.30
26254;DHT22;53339;51.378;0.094;2024-03-23T07:59:50;6.00;75.30
26254;DHT22;53339;51.378;0.094;2024-03-23T08:02:16;6.10;75.20
26254;DHT22;53339;51.378;0.094;2024-03-23T08:04:43;6.10;75.10
26254;DHT22;53339;51.378;0.094;2024-03-23T08:07:12;6.10;74.60
26254;DHT22;53339;51.378;0.094;2024-03-23T08:09:39;6.20;74.50
26254;DHT22;53339;51.378;0.094;2024-03-23T08:12:06;6.30;74.50
26254;DHT22;53339;51.378;0.094;2024-03-23T08:14:33;6.30;73.50
26254;DHT22;53339;51.378;0.094;2024-03-23T08:17:00;6.40;73.80
26254;DHT22;53339;51.378;0.094;2024-03-23T08:19:27;6.50;73.70
26254;DHT22;53339;51.378;0.094;2024-03-23T08:21:54;6.50;73.50
26254;DHT22;53339;51.378;0.094;2024-03-23T08:24:21;6.60;73.60
26254;DHT22;53339;51.378;0.094;2024-03-23T08:26:48;6.60;73.50
26254;DHT22;53339;51.378;0.094;2024-03-23T08:29:14;6.70;73.40
26254;DHT22;53339;51.378;0.094;2024-03-23T08:31:41;6.70;72.50
26254;DHT22;53339;51.378;0.094;2024-03-23T08:34:07;6.80;72.90
26254;DHT22;53339;51.378;0.094;2024-03-23T08:36:34;6.80;72.50
26254;DHT22;53339;51.378;0.094;2024-03-23T08:39:01;6.90;72.00
26254;DHT22;53339;51.378;0.094;2024-03-23T08:41:28;7.00;72.00
26254;DHT22;53339;51.378;0.094;2024-03-23T08:43:55;7.00;71.60
26254;DHT22;53339;51.378;0.094;2024-03-23T08:46:22;7.10;71.30
26254;DHT22;53339;51.378;0.094;2024-03-23T08:48:49;7.10;71.30
26254;DHT22;53339;51.378;0.094;2024-03-23T08:51:17;7.20;71.00
26254;DHT22;53339;51.378;0.094;2024-03-23T08:53:44;7.30;70.70
26254;DHT22;53339;51.378;0.094;2024-03-23T08:56:11;7.30;70.20
26254;DHT22;53339;51.378;0.094;2024-03-23T08:58:39;7.40;69.60
26254;DHT22;53339;51.378;0.094;2024-03-23T09:01:10;7.50;69.10
26254;DHT22;53339;51.378;0.094;2024-03-23T09:03:38;7.50;68.60
26254;DHT22;53339;51.378;0.094;2024-03-23T09:06:14;7.60;68.20
26254;DHT22;53339;51.378;0.094;2024-03-23T09:08:41;7.60;68.60
26254;DHT22;53339;51.378;0.094;2024-03-23T09:11:10;7.70;68.60
26254;DHT22;53339;51.378;0.094;2024-03-23T09:13:37;7.70;68.20
26254;DHT22;53339;51.378;0.094;2024-03-23T09:16:05;7.90;67.60
26254;DHT22;53339;51.378;0.094;2024-03-23T09:18:33;8.00;66.60
26254;DHT22;53339;51.378;0.094;2024-03-23T09:21:00;8.20;66.70
26254;DHT22;53339;51.378;0.094;2024-03-23T09:23:29;8.30;65.70
26254;DHT22;53339;51.378;0.094;2024-03-23T09:26:05;8.40;65.40
26254;DHT22;53339;51.378;0.094;2024-03-23T09:28:35;8.40;64.90
26254;DHT22;53339;51.378;0.094;2024-03-23T09:31:06;8.40;64.00
26254;DHT22;53339;51.378;0.094;2024-03-23T09:33:40;8.30;65.30
26254;DHT22;53339;51.378;0.094;2024-03-23T09:36:09;8.30;64.80
26254;DHT22;53339;51.378;0.094;2024-03-23T09:38:35;8.40;64.70
26254;DHT22;53339;51.378;0.094;2024-03-23T09:41:07;8.50;65.20
26254;DHT22;53339;51.378;0.094;2024-03-23T09:43:35;8.60;64.70
26254;DHT22;53339;51.378;0.094;2024-03-23T09:46:02;8.60;64.70
26254;DHT22;53339;51.378;0.094;2024-03-23T09:48:29;8.60;63.60
26254;DHT22;53339;51.378;0.094;2024-03-23T09:50:57;8.70;63.80
26254;DHT22;53339;51.378;0.094;2024-03-23T09:53:24;8.90;62.90
26254;DHT22;53339;51.378;0.094;2024-03-23T09:55:50;8.90;62.30
26254;DHT22;53339;51.378;0.094;2024-03-23T09:58:18;9.10;62.30
26254;DHT22;53339;51.378;0.094;2024-03-23T10:00:45;9.20;61.60
26254;DHT22;53339;51.378;0.094;2024-03-23T10:03:12;9.20;61.50
26254;DHT22;53339;51.378;0.094;2024-03-23T10:05:39;9.20;60.80
26254;DHT22;53339;51.378;0.094;2024-03-23T10:10:45;9.10;60.50
26254;DHT22;53339;51.378;0.094;2024-03-23T10:13:31;9.10;60.60
26254;DHT22;53339;51.378;0.094;2024-03-23T10:15:59;9.10;60.50
26254;DHT22;53339;51.378;0.094;2024-03-23T10:18:26;9.10;61.20
26254;DHT22;53339;51.378;0.094;2024-03-23T10:23:38;9.10;62.40
26254;DHT22;53339;51.378;0.094;2024-03-23T10:26:25;9.10;61.70
26254;DHT22;53339;51.378;0.094;2024-03-23T10:31:20;9.10;61.80
26254;DHT22;53339;51.378;0.094;2024-03-23T10:33:48;9.20;61.50
26254;DHT22;53339;51.378;0.094;2024-03-23T10:36:15;9.40;60.50
26254;DHT22;53339;51.378;0.094;2024-03-23T10:38:44;9.60;61.20
26254;DHT22;53339;51.378;0.094;2024-03-23T10:41:11;9.80;59.70
26254;DHT22;53339;51.378;0.094;2024-03-23T10:43:39;10.00;59.40
26254;DHT22;53339;51.378;0.094;2024-03-23T10:46:06;10.10;58.30
26254;DHT22;53339;51.378;0.094;2024-03-23T10:48:33;10.20;58.50
26254;DHT22;53339;51.378;0.094;2024-03-23T10:51:00;10.30;57.70
26254;DHT22;53339;51.378;0.094;2024-03-23T10:53:28;10.30;57.60
26254;DHT22;53339;51.378;0.094;2024-03-23T10:55:56;10.40;58.40
26254;DHT22;53339;51.378;0.094;2024-03-23T10:58:39;10.40;56.80
26254;DHT22;53339;51.378;0.094;2024-03-23T11:01:10;10.30;57.00
26254;DHT22;53339;51.378;0.094;2024-03-23T11:03:38;10.30;56.20
26254;DHT22;53339;51.378;0.094;2024-03-23T11:06:06;10.50;56.00
26254;DHT22;53339;51.378;0.094;2024-03-23T11:08:37;10.60;55.00
26254;DHT22;53339;51.378;0.094;2024-03-23T11:11:23;10.60;55.00
26254;DHT22;53339;51.378;0.094;2024-03-23T11:13:52;10.60;55.80
26254;DHT22;53339;51.378;0.094;2024-03-23T11:16:24;10.60;54.70
26254;DHT22;53339;51.378;0.094;2024-03-23T11:18:51;10.70;55.50
26254;DHT22;53339;51.378;0.094;2024-03-23T11:21:53;10.80;54.10
26254;DHT22;53339;51.378;0.094;2024-03-23T11:24:21;10.80;53.10
26254;DHT22;53339;51.378;0.094;2024-03-23T11:26:49;10.70;53.80
26254;DHT22;53339;51.378;0.094;2024-03-23T11:29:16;10.60;55.10
26254;DHT22;53339;51.378;0.094;2024-03-23T11:31:51;10.70;54.30
26254;DHT22;53339;51.378;0.094;2024-03-23T11:34:19;10.80;53.50
26254;DHT22;53339;51.378;0.094;2024-03-23T11:36:47;10.90;52.30
26254;DHT22;53339;51.378;0.094;2024-03-23T11:39:16;10.80;52.30
26254;DHT22;53339;51.378;0.094;2024-03-23T11:41:53;10.90;53.80
26254;DHT22;53339;51.378;0.094;2024-03-23T11:44:22;11.00;53.50
26254;DHT22;53339;51.378;0.094;2024-03-23T11:46:49;11.00;52.20
26254;DHT22;53339;51.378;0.094;2024-03-23T11:49:23;11.10;51.30
26254;DHT22;53339;51.378;0.094;2024-03-23T11:51:52;11.10;52.40
26254;DHT22;53339;51.378;0.094;2024-03-23T11:54:24;11.20;51.30
26254;DHT22;53339;51.378;0.094;2024-03-23T11:59:38;11.50;50.90
26254;DHT22;53339;51.378;0.094;2024-03-23T12:04:33;11.30;49.60
26254;DHT22;53339;51.378;0.094;2024-03-23T12:07:19;11.20;51.20
26254;DHT22;53339;51.378;0.094;2024-03-23T12:10:06;11.20;51.30
26254;DHT22;53339;51.378;0.094;2024-03-23T12:12:34;11.20;50.30
26254;DHT22;53339;51.378;0.094;2024-03-23T12:15:05;11.10;50.00
26254;DHT22;53339;51.378;0.094;2024-03-23T12:17:32;11.10;48.70
26254;DHT22;53339;51.378;0.094;2024-03-23T12:20:04;11.10;49.40
26254;DHT22;53339;51.378;0.094;2024-03-23T12:22:31;11.20;50.00
26254;DHT22;53339;51.378;0.094;2024-03-23T12:24:58;11.40;50.40
26254;DHT22;53339;51.378;0.094;2024-03-23T12:27:25;11.70;49.60
26254;DHT22;53339;51.378;0.094;2024-03-23T12:29:52;11.80;49.90
26254;DHT22;53339;51.378;0.094;2024-03-23T12:32:21;11.90;48.80
26254;DHT22;53339;51.378;0.094;2024-03-23T12:34:48;11.90;46.50
26254;DHT22;53339;51.378;0.094;2024-03-23T12:37:15;11.90;46.50
26254;DHT22;53339;51.378;0.094;2024-03-23T12:39:44;11.90;46.40
26254;DHT22;53339;51.378;0.094;2024-03-23T12:42:13;11.70;45.90
26254;DHT22;53339;51.378;0.094;2024-03-23T12:44:41;11.70;46.30
26254;DHT22;53339;51.378;0.094;2024-03-23T12:47:08;11.70;47.80
26254;DHT22;53339;51.378;0.094;2024-03-23T12:49:35;11.80;47.90
26254;DHT22;53339;51.378;0.094;2024-03-23T12:52:01;11.90;48.60
26254;DHT22;53339;51.378;0.094;2024-03-23T12:54:34;12.00;47.50
26254;DHT22;53339;51.378;0.094;2024-03-23T12:57:01;12.00;48.20
26254;DHT22;53339;51.378;0.094;2024-03-23T12:59:28;12.00;48.90
26254;DHT22;53339;51.378;0.094;2024-03-23T13:01:55;12.10;48.90
26254;DHT22;53339;51.378;0.094;2024-03-23T13:04:21;12.00;50.40
26254;DHT22;53339;51.378;0.094;2024-03-23T13:06:48;12.00;50.00
26254;DHT22;53339;51.378;0.094;2024-03-23T13:09:15;12.00;49.50
26254;DHT22;53339;51.378;0.094;2024-03-23T13:11:48;11.90;50.40
26254;DHT22;53339;51.378;0.094;2024-03-23T13:14:15;11.90;51.10
26254;DHT22;53339;51.378;0.094;2024-03-23T13:16:43;11.70;51.80
26254;DHT22;53339;51.378;0.094;2024-03-23T13:19:10;11.50;51.80
26254;DHT22;53339;51.378;0.094;2024-03-23T13:21:37;11.40;52.50
26254;DHT22;53339;51.378;0.094;2024-03-23T13:24:04;11.20;52.30
26254;DHT22;53339;51.378;0.094;2024-03-23T13:26:31;11.00;54.50
26254;DHT22;53339;51.378;0.094;2024-03-23T13:28:58;10.90;55.10
26254;DHT22;53339;51.378;0.094;2024-03-23T13:31:24;11.00;54.80
26254;DHT22;53339;51.378;0.094;2024-03-23T13:33:51;11.10;55.70
26254;DHT22;53339;51.378;0.094;2024-03-23T13:36:18;11.00;55.80
26254;DHT22;53339;51.378;0.094;2024-03-23T13:38:45;10.90;55.60
26254;DHT22;53339;51.378;0.094;2024-03-23T13:41:11;10.60;56.90
26254;DHT22;53339;51.378;0.094;2024-03-23T13:43:38;10.60;57.60
26254;DHT22;53339;51.378;0.094;2024-03-23T13:46:06;10.50;58.30
26254;DHT22;53339;51.378;0.094;2024-03-23T13:48:36;10.40;58.10
26254;DHT22;53339;51.378;0.094;2024-03-23T13:51:04;10.20;58.00
26254;DHT22;53339;51.378;0.094;2024-03-23T13:53:32;10.10;59.10
26254;DHT22;53339;51.378;0.094;2024-03-23T13:56:00;9.30;62.60
26254;DHT22;53339;51.378;0.094;2024-03-23T13:58:28;7.60;65.90
26254;DHT22;53339;51.378;0.094;2024-03-23T14:00:57;6.20;69.90
26254;DHT22;53339;51.378;0.094;2024-03-23T14:03:24;5.40;74.30
26254;DHT22;53339;51.378;0.094;2024-03-23T14:05:58;5.20;77.00
26254;DHT22;53339;51.378;0.094;2024-03-23T14:08:28;5.00;78.70
26254;DHT22;53339;51.378;0.094;2024-03-23T14:10:55;5.00;79.90
26254;DHT22;53339;51.378;0.094;2024-03-23T14:13:22;5.00;80.80
26254;DHT22;53339;51.378;0.094;2024-03-23T14:15:53;5.10;81.30
26254;DHT22;53339;51.378;0.094;2024-03-23T14:18:20;5.20;82.00
26254;DHT22;53339;51.378;0.094;2024-03-23T14:20:49;5.30;82.30
26254;DHT22;53339;51.378;0.094;2024-03-23T14:23:16;5.40;82.80
26254;DHT22;53339;51.378;0.094;2024-03-23T14:25:43;5.70;83.00
26254;DHT22;53339;51.378;0.094;2024-03-23T14:28:10;5.90;83.40
26254;DHT22;53339;51.378;0.094;2024-03-23T14:30:41;6.10;83.70
26254;DHT22;53339;51.378;0.094;2024-03-23T14:33:08;6.50;84.00
26254;DHT22;53339;51.378;0.094;2024-03-23T14:35:35;7.30;83.40
26254;DHT22;53339;51.378;0.094;2024-03-23T14:38:02;8.10;81.70
26254;DHT22;53339;51.378;0.094;2024-03-23T14:40:29;8.90;77.30
26254;DHT22;53339;51.378;0.094;2024-03-23T14:42:56;9.60;76.20
26254;DHT22;53339;51.378;0.094;2024-03-23T14:45:22;10.20;74.40
26254;DHT22;53339;51.378;0.094;2024-03-23T14:47:51;10.90;72.10
26254;DHT22;53339;51.378;0.094;2024-03-23T14:50:19;11.40;71.40
26254;DHT22;53339;51.378;0.094;2024-03-23T14:52:51;12.00;69.70
26254;DHT22;53339;51.378;0.094;2024-03-23T14:55:18;12.50;66.40
26254;DHT22;53339;51.378;0.094;2024-03-23T14:57:45;12.90;64.40
26254;DHT22;53339;51.378;0.094;2024-03-23T15:00:12;13.20;62.70
26254;DHT22;53339;51.378;0.094;2024-03-23T15:02:39;13.30;59.00
26254;DHT22;53339;51.378;0.094;2024-03-23T15:05:06;13.30;58.80
26254;DHT22;53339;51.378;0.094;2024-03-23T15:07:36;13.50;59.10
26254;DHT22;53339;51.378;0.094;2024-03-23T15:10:06;13.60;58.90
26254;DHT22;53339;51.378;0.094;2024-03-23T15:12:34;13.40;58.70
26254;DHT22;53339;51.378;0.094;2024-03-23T15:15:01;13.00;59.10
26254;DHT22;53339;51.378;0.094;2024-03-23T15:17:28;12.70;59.80
26254;DHT22;53339;51.378;0.094;2024-03-23T15:19:54;12.70;59.10
26254;DHT22;53339;51.378;0.094;2024-03-23T15:22:22;12.80;59.60
26254;DHT22;53339;51.378;0.094;2024-03-23T15:24:48;13.20;59.10
26254;DHT22;53339;51.378;0.094;2024-03-23T15:27:15;13.50;56.00
26254;DHT22;53339;51.378;0.094;2024-03-23T15:29:42;13.60;56.40
26254;DHT22;53339;51.378;0.094;2024-03-23T15:32:14;13.90;55.90
26254;DHT22;53339;51.378;0.094;2024-03-23T15:34:44;14.20;56.30
26254;DHT22;53339;51.378;0.094;2024-03-23T15:37:10;14.50;55.90
26254;DHT22;53339;51.378;0.094;2024-03-23T15:39:37;14.70;52.80
26254;DHT22;53339;51.378;0.094;2024-03-23T15:42:04;14.70;52.50
26254;DHT22;53339;51.378;0.094;2024-03-23T15:44:32;14.70;52.30
26254;DHT22;53339;51.378;0.094;2024-03-23T15:47:01;14.60;52.60
26254;DHT22;53339;51.378;0.094;2024-03-23T15:49:28;14.60;53.10
26254;DHT22;53339;51.378;0.094;2024-03-23T15:51:54;14.80;52.70
26254;DHT22;53339;51.378;0.094;2024-03-23T15:54:24;14.60;51.10
26254;DHT22;53339;51.378;0.094;2024-03-23T15:56:51;13.60;53.30
26254;DHT22;53339;51.378;0.094;2024-03-23T15:59:17;12.20;55.60
26254;DHT22;53339;51.378;0.094;2024-03-23T16:01:44;11.10;58.80
26254;DHT22;53339;51.378;0.094;2024-03-23T16:04:11;10.30;61.00
26254;DHT22;53339;51.378;0.094;2024-03-23T16:06:39;9.80;62.30
26254;DHT22;53339;51.378;0.094;2024-03-23T16:09:08;9.30;64.50
26254;DHT22;53339;51.378;0.094;2024-03-23T16:11:35;8.90;66.00
26254;DHT22;53339;51.378;0.094;2024-03-23T16:14:02;8.00;68.00
26254;DHT22;53339;51.378;0.094;2024-03-23T16:16:29;7.10;70.00
26254;DHT22;53339;51.378;0.094;2024-03-23T16:18:56;6.40;72.10
26254;DHT22;53339;51.378;0.094;2024-03-23T16:21:23;6.00;74.00
26254;DHT22;53339;51.378;0.094;2024-03-23T16:23:50;6.10;76.50
26254;DHT22;53339;51.378;0.094;2024-03-23T16:26:16;6.60;77.80
26254;DHT22;53339;51.378;0.094;2024-03-23T16:28:43;7.10;77.20
26254;DHT22;53339;51.378;0.094;2024-03-23T16:31:10;7.30;76.30
26254;DHT22;53339;51.378;0.094;2024-03-23T16:33:38;7.20;75.70
26254;DHT22;53339;51.378;0.094;2024-03-23T16:36:06;7.10;76.40
26254;DHT22;53339;51.378;0.094;2024-03-23T16:38:37;7.00;76.70
26254;DHT22;53339;51.378;0.094;2024-03-23T16:41:11;6.90;77.30
26254;DHT22;53339;51.378;0.094;2024-03-23T16:43:45;6.80;77.40
26254;DHT22;53339;51.378;0.094;2024-03-23T16:46:13;6.70;77.70
26254;DHT22;53339;51.378;0.094;2024-03-23T16:48:42;6.70;78.20
26254;DHT22;53339;51.378;0.094;2024-03-23T16:51:11;6.70;78.60